»·PEaware :: SAS737 KSBA-KSAN

SAS737 :: KSBA-KSAN

FLIGHT INFORMATION

Flight Status: Arrived
Operator:
SAS
More flights by this operator :: More flights under this callsign
Pilot: Anonymous 9219 (9219)
Aircraft: AIRBUS A320
(A320)
More flights by this aircraft type
Origin: KSBA Santa Barbara Mun
United States
Destination: KSAN San Diego Intl-Lindbergh
United States
More flights between these airports :: More routes between these airports
Route: +KWANG5 KWANG VTU V208 SXC V208 LAX118R CARDI MZB320R MZB
File this flight plan on PilotEdge
Remarks: RMK / LIVE STREAM TWITCH.TV / GIANTUNICORN
Altitude:
(Current/Filed)
11,000ft
Speed:
(Current/Filed)
440kts
Departed: 06-Nov-15 06:05 PM
Arrived: 06-Nov-15 06:43 PM
Distance/Time
Traveled:
166nm/0:37
Distance/Time
To Go:
Arrived

Flight Plot

Page will automatically refresh every two minutes.

Flight plan parsing failed; only flown route is shown


Map Options




Map Legend


Flown Route
Filed Route
Departure Airport
Arrival Airport
Navaid (VOR, NDB)
Fix

Horizontal Profiles

Position Reports

Time Latitude Longitude Heading Altitude Ground
Speed
06-Nov-15 17:17 34.425753 -119.837518 89 21ft 0kts
06-Nov-15 17:18 34.425753 -119.837518 89 21ft 0kts
06-Nov-15 17:19 34.425753 -119.837518 89 21ft 0kts
06-Nov-15 17:20 34.425753 -119.837518 89 21ft 0kts
06-Nov-15 17:21 34.425753 -119.837518 89 21ft 0kts
06-Nov-15 17:22 34.425753 -119.837518 89 21ft 0kts
06-Nov-15 17:23 34.425753 -119.837518 89 21ft 0kts
06-Nov-15 17:24 34.425753 -119.837518 89 21ft 0kts
06-Nov-15 17:25 34.425753 -119.837518 89 21ft 0kts
06-Nov-15 17:26 34.425753 -119.837518 89 21ft 0kts
06-Nov-15 17:27 34.425753 -119.837518 89 21ft 0kts
06-Nov-15 17:28 34.425753 -119.837518 89 21ft 0kts
06-Nov-15 17:29 34.425753 -119.837518 89 21ft 0kts
06-Nov-15 17:30 34.425753 -119.837518 89 21ft 0kts
06-Nov-15 17:31 34.425753 -119.837518 89 21ft 0kts
06-Nov-15 17:32 34.425753 -119.837518 89 21ft 0kts
06-Nov-15 17:33 34.425753 -119.837518 89 21ft 0kts
06-Nov-15 17:34 34.425753 -119.837518 89 21ft 0kts
06-Nov-15 17:35 34.425753 -119.837518 89 21ft 0kts
06-Nov-15 17:36 34.425753 -119.837518 89 21ft 0kts
06-Nov-15 17:37 34.425753 -119.837518 89 21ft 0kts
06-Nov-15 17:38 34.425753 -119.837518 89 21ft 0kts
06-Nov-15 17:39 34.425753 -119.837518 89 21ft 0kts
06-Nov-15 17:40 34.425753 -119.837518 89 21ft 0kts
06-Nov-15 17:41 34.425753 -119.837518 89 21ft 0kts
06-Nov-15 17:42 34.425753 -119.837518 89 21ft 0kts
06-Nov-15 17:43 34.425753 -119.837518 89 21ft 0kts
06-Nov-15 17:44 34.425753 -119.837518 89 21ft 0kts
06-Nov-15 17:45 34.425753 -119.837518 89 21ft 0kts
06-Nov-15 17:46 34.425753 -119.837518 89 21ft 0kts
06-Nov-15 17:47 34.425753 -119.837518 89 21ft 0kts
06-Nov-15 17:48 34.425753 -119.837518 89 21ft 0kts
06-Nov-15 17:49 34.425753 -119.837518 89 21ft 0kts
06-Nov-15 17:50 34.425753 -119.837518 89 21ft 0kts
06-Nov-15 17:51 34.425753 -119.837518 89 21ft 0kts
06-Nov-15 17:52 34.425753 -119.837518 89 21ft 0kts
06-Nov-15 17:53 34.425753 -119.837518 89 21ft 0kts
06-Nov-15 17:54 34.425753 -119.837518 89 21ft 0kts
06-Nov-15 17:55 34.425753 -119.837507 89 21ft 0kts
06-Nov-15 17:56 34.425688 -119.838112 40 21ft 1kts
06-Nov-15 17:57 34.425626 -119.838154 12 21ft 0kts
06-Nov-15 17:58 34.425626 -119.838154 12 21ft 0kts
06-Nov-15 17:59 34.426094 -119.838192 348 21ft 6kts
06-Nov-15 18:00 34.426729 -119.835968 86 22ft 7kts
06-Nov-15 18:01 34.426987 -119.834657 19 21ft 0kts
06-Nov-15 18:02 34.427671 -119.834802 331 21ft 12kts
06-Nov-15 18:03 34.424075 -119.868898 231 1491ft 164kts
06-Nov-15 18:04 34.390843 -119.836881 89 2961ft 261kts
06-Nov-15 18:05 34.371249 -119.751980 107 6051ft 271kts
06-Nov-15 18:06 34.348238 -119.664310 106 8478ft 289kts
06-Nov-15 18:07 34.322992 -119.567495 107 10590ft 355kts
06-Nov-15 18:08 34.286398 -119.459285 116 11001ft 393kts
06-Nov-15 18:09 34.238221 -119.343823 115 11000ft 393kts
06-Nov-15 18:10 34.191127 -119.231048 115 11000ft 394kts
06-Nov-15 18:11 34.143484 -119.117303 115 11000ft 394kts
06-Nov-15 18:12 34.065933 -119.048697 169 10999ft 402kts
06-Nov-15 18:13 33.956263 -119.033382 173 11000ft 403kts
06-Nov-15 18:14 33.845442 -119.021554 173 11000ft 403kts
06-Nov-15 18:15 33.754128 -118.959738 130 11000ft 396kts
06-Nov-15 18:16 33.684559 -118.861951 128 11000ft 396kts
06-Nov-15 18:17 33.615918 -118.763214 128 10969ft 396kts
06-Nov-15 18:18 33.546388 -118.663629 128 10963ft 397kts
06-Nov-15 18:19 33.476241 -118.563456 128 10967ft 398kts
06-Nov-15 18:20 33.408406 -118.467042 128 10973ft 398kts
06-Nov-15 18:21 33.367126 -118.353762 99 10973ft 392kts
06-Nov-15 18:22 33.349084 -118.227370 97 10980ft 392kts
06-Nov-15 18:23 33.331773 -118.100312 97 11012ft 392kts
06-Nov-15 18:24 33.314301 -117.972874 97 11009ft 393kts
06-Nov-15 18:25 33.298439 -117.855238 97 11002ft 394kts
06-Nov-15 18:26 33.281411 -117.728407 98 10988ft 393kts
06-Nov-15 18:27 33.263525 -117.602225 102 10972ft 392kts
06-Nov-15 18:28 33.199392 -117.501247 131 10976ft 397kts
06-Nov-15 18:29 33.128930 -117.419813 150 10022ft 332kts
06-Nov-15 18:30 33.056574 -117.378004 153 9056ft 291kts
06-Nov-15 18:31 32.988270 -117.339829 154 8132ft 286kts
06-Nov-15 18:32 32.921442 -117.302757 154 7179ft 283kts
06-Nov-15 18:33 32.856754 -117.266867 154 6168ft 271kts
06-Nov-15 18:34 32.810929 -117.221108 123 5145ft 213kts
06-Nov-15 18:35 32.784206 -117.167412 116 3811ft 216kts
06-Nov-15 18:36 32.763656 -117.124377 119 2729ft 192kts
06-Nov-15 18:37 32.735452 -117.088228 175 2245ft 154kts
06-Nov-15 18:38 32.718437 -117.120332 273 1089ft 143kts
06-Nov-15 18:39 32.726570 -117.160830 289 358ft 140kts
06-Nov-15 18:40 32.735085 -117.195631 286 25ft 56kts
06-Nov-15 18:41 32.735467 -117.202226 195 25ft 9kts
06-Nov-15 18:42 32.735353 -117.202264 195 25ft 0kts
06-Nov-15 18:43 32.734776 -117.202455 195 25ft 13kts

Navigation Log

Ident Type
Flight plan parsing failed, navigation log unavailable